| time (UTC) | temp C | wind direction | speed KPH | gust KPH | rain 1hr cm | rain 24hr cm | rain mn cm | humidity % | barometer mb |
| 20260903145337 | 23 | 252 | 4.8 | 8.0 | 0.00 | 0.00 | 0.00 | 41 | 1020.3 |
| 20260903143815 | 24 | 261 | 4.8 | 9.7 | 0.00 | 0.00 | 0.00 | 39 | 1020.5 |
| 20260903143308 | 24 | 261 | 3.2 | 6.4 | 0.00 | 0.00 | 0.00 | 39 | 1020.5 |
| 20260903142801 | 24 | 251 | 4.8 | 9.7 | 0.00 | 0.00 | 0.00 | 39 | 1020.3 |
| 20260903141746 | 24 | 211 | 3.2 | 6.4 | 0.00 | 0.00 | 0.00 | 39 | 1020.3 |
| 20260903141239 | 25 | 238 | 4.8 | 8.0 | 0.00 | 0.00 | 0.00 | 38 | 1020.4 |
| 20260903135717 | 25 | 265 | 4.8 | 9.7 | 0.00 | 0.00 | 0.00 | 38 | 1020.4 |
| 20260903134703 | 25 | 274 | 4.8 | 9.7 | 0.00 | 0.00 | 0.00 | 37 | 1020.8 |
| 20260903134156 | 25 | 258 | 4.8 | 6.4 | 0.00 | 0.00 | 0.00 | 37 | 1020.7 |
| 20260903132634 | 26 | 223 | 4.8 | 9.7 | 0.00 | 0.00 | 0.00 | 36 | 1020.8 |
| 20260903125549 | 27 | 283 | 4.8 | 12.9 | 0.00 | 0.00 | 0.00 | 33 | 1020.6 |
| 20260903125042 | 27 | 231 | 4.8 | 11.3 | 0.00 | 0.00 | 0.00 | 33 | 1020.5 |
| 20260903124534 | 27 | 259 | 4.8 | 8.0 | 0.00 | 0.00 | 0.00 | 33 | 1020.4 |
| 20260903120942 | 26 | 227 | 3.2 | 8.0 | 0.00 | 0.00 | 0.00 | 35 | 1020.4 |
| 20260903120435 | 26 | 199 | 4.8 | 11.3 | 0.00 | 0.00 | 0.00 | 35 | 1020.6 |
| 20260903115927 | 26 | 152 | 4.8 | 12.9 | 0.00 | 0.00 | 0.00 | 34 | 1020.8 |
| 20260903114405 | 26 | 231 | 6.4 | 11.3 | 0.00 | 0.00 | 0.00 | 34 | 1021.2 |
| 20260903113857 | 26 | 252 | 3.2 | 6.4 | 0.00 | 0.00 | 0.00 | 35 | 1021.1 |
| 20260903113350 | 26 | 272 | 4.8 | 14.5 | 0.00 | 0.00 | 0.00 | 36 | 1021.2 |
| 20260903112843 | 26 | 221 | 3.2 | 6.4 | 0.00 | 0.00 | 0.00 | 37 | 1021.0 |
| 20260903112335 | 26 | 228 | 4.8 | 11.3 | 0.00 | 0.00 | 0.00 | 36 | 1021.1 |
| 20260903111828 | 26 | 241 | 4.8 | 8.0 | 0.00 | 0.00 | 0.00 | 36 | 1021.2 |
| 20260903110813 | 26 | 215 | 4.8 | 8.0 | 0.00 | 0.00 | 0.00 | 36 | 1021.3 |
| 20260903105251 | 25 | 267 | 3.2 | 8.0 | 0.00 | 0.00 | 0.00 | 38 | 1021.4 |
| 20260903104743 | 25 | 219 | 4.8 | 6.4 | 0.00 | 0.00 | 0.00 | 39 | 1021.6 |
| 20260903102715 | 24 | 230 | 4.8 | 9.7 | 0.00 | 0.00 | 0.00 | 38 | 1021.8 |
| 20260903101700 | 25 | 248 | 4.8 | 11.3 | 0.00 | 0.00 | 0.00 | 38 | 1021.9 |
| 20260903100646 | 25 | 248 | 4.8 | 8.0 | 0.00 | 0.00 | 0.00 | 38 | 1022.1 |
| 20260903093602 | 25 | 239 | 6.4 | 12.9 | 0.00 | 0.00 | 0.00 | 39 | 1022.2 |
| 20260903093055 | 24 | 243 | 6.4 | 14.5 | 0.00 | 0.00 | 0.00 | 40 | 1022.1 |
| 20260903092547 | 24 | 253 | 6.4 | 14.5 | 0.00 | 0.00 | 0.00 | 40 | 1022.2 |
| 20260903091533 | 23 | 241 | 4.8 | 9.7 | 0.00 | 0.00 | 0.00 | 41 | 1022.1 |
| 20260903090519 | 23 | 255 | 3.2 | 12.9 | 0.00 | 0.00 | 0.00 | 42 | 1022.1 |
| 20260903090012 | 23 | 288 | 3.2 | 6.4 | 0.00 | 0.00 | 0.00 | 41 | 1022.0 |
| 20260903085505 | 24 | 235 | 4.8 | 11.3 | 0.00 | 0.00 | 0.00 | 41 | 1022.1 |
| 20260903083943 | 23 | 227 | 6.4 | 9.7 | 0.00 | 0.00 | 0.00 | 41 | 1022.4 |
| 20260903083436 | 24 | 252 | 6.4 | 12.9 | 0.00 | 0.00 | 0.00 | 40 | 1022.4 |
| 20260903082929 | 25 | 280 | 4.8 | 8.0 | 0.00 | 0.00 | 0.00 | 39 | 1022.3 |
| 20260903082421 | 25 | 245 | 4.8 | 6.4 | 0.00 | 0.00 | 0.00 | 39 | 1022.2 |
| 20260903080352 | 25 | 278 | 3.2 | 6.4 | 0.00 | 0.00 | 0.00 | 42 | 1022.2 |
| 20260903075338 | 25 | 238 | 4.8 | 8.0 | 0.00 | 0.00 | 0.00 | 42 | 1022.2 |
| 20260903074831 | 25 | 228 | 4.8 | 8.0 | 0.00 | 0.00 | 0.00 | 42 | 1022.2 |
| 20260903074323 | 24 | 215 | 4.8 | 9.7 | 0.00 | 0.00 | 0.00 | 44 | 1022.2 |
| 20260903073816 | 24 | 230 | 1.6 | 3.2 | 0.00 | 0.00 | 0.00 | 48 | 1022.3 |
| 20260903072802 | 23 | 178 | 3.2 | 6.4 | 0.00 | 0.00 | 0.00 | 51 | 1022.3 |
| 20260903071748 | 22 | 115 | 3.2 | 4.8 | 0.00 | 0.00 | 0.00 | 54 | 1022.3 |
| 20260903065213 | 21 | 166 | 1.6 | 3.2 | 0.00 | 0.00 | 0.00 | 66 | 1022.3 |
| 20260903064200 | 19 | 149 | 0.0 | 3.2 | 0.00 | 0.00 | 0.00 | 71 | 1022.3 |
| 20260903063653 | 18 | 27 | 0.0 | 1.6 | 0.00 | 0.00 | 0.00 | 73 | 1022.3 |
| 20260903063146 | 18 | 73 | 0.0 | 1.6 | 0.00 | 0.00 | 0.00 | 74 | 1022.2 |
| 20260903062640 | 18 | 140 | 1.6 | 3.2 | 0.00 | 0.00 | 0.00 | 75 | 1022.2 |
| 20260903060614 | 15 | 312 | 0.0 | 0.0 | 0.00 | 0.00 | 0.00 | 85 | 1022.3 |
| 20260903055601 | 14 | 315 | 0.0 | 0.0 | 0.00 | 0.00 | 0.00 | 83 | 1022.1 |
| 20260903054549 | 14 | 315 | 0.0 | 0.0 | 0.00 | 0.00 | 0.00 | 83 | 1022.0 |
| 20260903051511 | 13 | 315 | 0.0 | 0.0 | 0.00 | 0.00 | 0.00 | 83 | 1021.9 |
| 20260903051005 | 13 | 315 | 0.0 | 0.0 | 0.00 | 0.00 | 0.00 | 83 | 1021.9 |
| 20260903045953 | 13 | 315 | 0.0 | 0.0 | 0.00 | 0.00 | 0.00 | 83 | 1022.1 |
| 20260903045447 | 13 | 315 | 0.0 | 0.0 | 0.00 | 0.00 | 0.00 | 83 | 1022.0 |
| 20260903043928 | 13 | 315 | 0.0 | 0.0 | 0.00 | 0.00 | 0.00 | 82 | 1021.9 |
| 20260903043422 | 13 | 315 | 0.0 | 0.0 | 0.00 | 0.00 | 0.00 | 82 | 1022.0 |
| 20260903042409 | 13 | 315 | 0.0 | 0.0 | 0.00 | 0.00 | 0.00 | 81 | 1021.9 |
| 20260903041903 | 13 | 315 | 0.0 | 0.0 | 0.00 | 0.00 | 0.00 | 81 | 1022.0 |
| 20260903034825 | 14 | 315 | 0.0 | 0.0 | 0.00 | 0.00 | 0.00 | 82 | 1021.6 |
| 20260903033813 | 14 | 45 | 0.0 | 0.0 | 0.00 | 0.00 | 0.00 | 82 | 1021.7 |
| 20260903033306 | 14 | 45 | 0.0 | 0.0 | 0.00 | 0.00 | 0.00 | 82 | 1021.7 |
| 20260903032254 | 14 | 353 | 0.0 | 0.0 | 0.00 | 0.00 | 0.00 | 81 | 1021.7 |
| 20260903030735 | 14 | 312 | 0.0 | 0.0 | 0.00 | 0.00 | 0.00 | 81 | 1021.7 |
| 20260903025722 | 14 | 311 | 0.0 | 0.0 | 0.00 | 0.00 | 0.00 | 81 | 1021.7 |
| 20260903024710 | 14 | 284 | 0.0 | 1.6 | 0.00 | 0.00 | 0.00 | 81 | 1021.7 |
| 20260903024203 | 14 | 277 | 0.0 | 1.6 | 0.00 | 0.00 | 0.00 | 81 | 1021.7 |
| 20260903023151 | 14 | 315 | 0.0 | 0.0 | 0.00 | 0.00 | 0.00 | 81 | 1021.7 |
| 20260903022138 | 14 | 302 | 0.0 | 0.0 | 0.00 | 0.00 | 0.00 | 81 | 1021.7 |
| 20260903021632 | 14 | 319 | 0.0 | 0.0 | 0.00 | 0.00 | 0.00 | 81 | 1021.7 |
| 20260903021126 | 14 | 285 | 0.0 | 0.0 | 0.00 | 0.00 | 0.00 | 81 | 1021.7 |
| 20260903015607 | 14 | 315 | 0.0 | 0.0 | 0.00 | 0.00 | 0.00 | 81 | 1021.7 |
| 20260903015101 | 14 | 302 | 0.0 | 0.0 | 0.00 | 0.00 | 0.00 | 81 | 1021.7 |
| 20260903014555 | 14 | 316 | 0.0 | 0.0 | 0.00 | 0.00 | 0.00 | 80 | 1021.7 |
| 20260903014048 | 14 | 316 | 0.0 | 0.0 | 0.00 | 0.00 | 0.00 | 80 | 1021.7 |
| 20260903013542 | 14 | 315 | 0.0 | 0.0 | 0.00 | 0.00 | 0.00 | 80 | 1021.8 |
| 20260903013036 | 14 | 283 | 0.0 | 0.0 | 0.00 | 0.00 | 0.00 | 80 | 1021.7 |
| 20260903012024 | 14 | 225 | 0.0 | 0.0 | 0.00 | 0.00 | 0.00 | 80 | 1021.8 |
| 20260903010505 | 14 | 318 | 0.0 | 0.0 | 0.00 | 0.00 | 0.00 | 79 | 1021.8 |
| 20260903005452 | 14 | 341 | 0.0 | 0.0 | 0.00 | 0.00 | 0.00 | 78 | 1021.8 |
| 20260903003934 | 14 | 312 | 0.0 | 0.0 | 0.00 | 0.00 | 0.00 | 77 | 1021.8 |
| 20260903003427 | 14 | 315 | 0.0 | 0.0 | 0.00 | 0.00 | 0.00 | 77 | 1021.8 |
| 20260903002415 | 14 | 336 | 0.0 | 0.0 | 0.00 | 0.00 | 0.00 | 76 | 1021.7 |
| 20260903001402 | 14 | 315 | 0.0 | 0.0 | 0.00 | 0.00 | 0.00 | 76 | 1021.8 |
| 20260903000856 | 14 | 338 | 0.0 | 0.0 | 0.00 | 0.00 | 0.00 | 76 | 1021.8 |
| 20260903000350 | 14 | 306 | 0.0 | 0.0 | 0.00 | 0.00 | 0.00 | 76 | 1021.7 |
| 20260902235843 | 14 | 315 | 0.0 | 0.0 | 0.00 | 0.00 | 0.00 | 75 | 1021.7 |
| 20260902233819 | 14 | 315 | 0.0 | 0.0 | 0.00 | 0.00 | 0.00 | 75 | 1021.8 |
| 20260902232806 | 15 | 315 | 0.0 | 0.0 | 0.00 | 0.00 | 0.00 | 74 | 1021.8 |
| 20260902232300 | 15 | 315 | 0.0 | 0.0 | 0.00 | 0.00 | 0.00 | 74 | 1021.9 |
| 20260902231753 | 15 | 315 | 0.0 | 0.0 | 0.00 | 0.00 | 0.00 | 73 | 1021.8 |
| 20260902231247 | 15 | 315 | 0.0 | 0.0 | 0.00 | 0.00 | 0.00 | 73 | 1021.8 |
| 20260902223703 | 15 | 315 | 0.0 | 0.0 | 0.00 | 0.00 | 0.00 | 71 | 1021.9 |
| 20260902222650 | 15 | 315 | 0.0 | 0.0 | 0.00 | 0.00 | 0.00 | 71 | 1021.9 |
| 20260902222144 | 15 | 315 | 0.0 | 0.0 | 0.00 | 0.00 | 0.00 | 70 | 1021.9 |
| 20260902221637 | 15 | 309 | 0.0 | 0.0 | 0.00 | 0.00 | 0.00 | 69 | 1021.9 |
| 20260902214053 | 16 | 315 | 0.0 | 0.0 | 0.00 | 0.00 | 0.00 | 67 | 1021.8 |
| 20260902213546 | 16 | 315 | 0.0 | 0.0 | 0.00 | 0.00 | 0.00 | 67 | 1021.8 |
| 20260902213040 | 16 | 315 | 0.0 | 0.0 | 0.00 | 0.00 | 0.00 | 66 | 1021.7 |
| 20260902212533 | 16 | 315 | 0.0 | 0.0 | 0.00 | 0.00 | 0.00 | 65 | 1021.6 |
| 20260902212027 | 16 | 315 | 0.0 | 0.0 | 0.00 | 0.00 | 0.00 | 65 | 1021.6 |
| 20260902211014 | 17 | 315 | 0.0 | 0.0 | 0.00 | 0.00 | 0.00 | 65 | 1021.6 |
| 20260902204442 | 17 | 334 | 1.6 | 3.2 | 0.00 | 0.00 | 0.00 | 66 | 1021.6 |
| 20260902203429 | 17 | 353 | 0.0 | 0.0 | 0.00 | 0.00 | 0.00 | 66 | 1021.7 |
| 20260902202922 | 17 | 303 | 0.0 | 1.6 | 0.00 | 0.00 | 0.00 | 66 | 1021.8 |
| 20260902202416 | 17 | 283 | 1.6 | 4.8 | 0.00 | 0.00 | 0.00 | 66 | 1021.9 |
| 20260902201403 | 17 | 258 | 1.6 | 3.2 | 0.00 | 0.00 | 0.00 | 63 | 1021.7 |
| 20260902200856 | 17 | 55 | 1.6 | 3.2 | 0.00 | 0.00 | 0.00 | 62 | 1021.5 |
| 20260902200349 | 17 | 246 | 1.6 | 4.8 | 0.00 | 0.00 | 0.00 | 60 | 1021.7 |
| 20260902195843 | 17 | 315 | 0.0 | 0.0 | 0.00 | 0.00 | 0.00 | 58 | 1021.5 |
| 20260902195336 | 17 | 315 | 0.0 | 0.0 | 0.00 | 0.00 | 0.00 | 57 | 1021.3 |
| 20260902194830 | 17 | 315 | 0.0 | 0.0 | 0.00 | 0.00 | 0.00 | 56 | 1021.2 |
| 20260902193817 | 18 | 315 | 0.0 | 0.0 | 0.00 | 0.00 | 0.00 | 55 | 1021.2 |
| 20260902191243 | 18 | 315 | 0.0 | 0.0 | 0.00 | 0.00 | 0.00 | 53 | 1021.2 |
| 20260902183656 | 20 | 315 | 0.0 | 0.0 | 0.00 | 0.00 | 0.00 | 50 | 1021.1 |
| 20260902182643 | 20 | 315 | 0.0 | 0.0 | 0.00 | 0.00 | 0.00 | 49 | 1020.9 |
| 20260902182136 | 21 | 315 | 0.0 | 0.0 | 0.00 | 0.00 | 0.00 | 48 | 1020.8 |
| 20260902180615 | 21 | 315 | 0.0 | 0.0 | 0.00 | 0.00 | 0.00 | 47 | 1020.6 |
| 20260902175601 | 21 | 315 | 0.0 | 0.0 | 0.00 | 0.00 | 0.00 | 47 | 1020.6 |
| 20260902175054 | 21 | 315 | 0.0 | 0.0 | 0.00 | 0.00 | 0.00 | 46 | 1020.5 |
| 20260902174041 | 22 | 315 | 0.0 | 0.0 | 0.00 | 0.00 | 0.00 | 45 | 1020.4 |
| 20260902173027 | 22 | 315 | 0.0 | 0.0 | 0.00 | 0.00 | 0.00 | 44 | 1020.4 |
| 20260902172520 | 22 | 309 | 0.0 | 0.0 | 0.00 | 0.00 | 0.00 | 44 | 1020.4 |
| 20260902172013 | 22 | 315 | 0.0 | 0.0 | 0.00 | 0.00 | 0.00 | 43 | 1020.4 |
| 20260902170959 | 22 | 294 | 0.0 | 3.2 | 0.00 | 0.00 | 0.00 | 42 | 1020.4 |
| 20260902170452 | 23 | 332 | 0.0 | 3.2 | 0.00 | 0.00 | 0.00 | 42 | 1020.5 |
| 20260902165437 | 23 | 269 | 0.0 | 4.8 | 0.00 | 0.00 | 0.00 | 42 | 1020.4 |
| 20260902162902 | 24 | 311 | 0.0 | 3.2 | 0.00 | 0.00 | 0.00 | 40 | 1020.3 |
| 20260902161340 | 25 | 236 | 1.6 | 4.8 | 0.00 | 0.00 | 0.00 | 38 | 1020.3 |
| 20260902160833 | 25 | 263 | 1.6 | 3.2 | 0.00 | 0.00 | 0.00 | 38 | 1020.3 |
| 20260902160326 | 25 | 256 | 1.6 | 4.8 | 0.00 | 0.00 | 0.00 | 38 | 1020.3 |
| 20260902154257 | 25 | 256 | 1.6 | 3.2 | 0.00 | 0.00 | 0.00 | 37 | 1020.3 |
| 20260902153242 | 25 | 260 | 3.2 | 4.8 | 0.00 | 0.00 | 0.00 | 36 | 1020.4 |
| 20260902152735 | 25 | 279 | 3.2 | 4.8 | 0.00 | 0.00 | 0.00 | 36 | 1020.5 |
| 20260902152227 | 25 | 274 | 3.2 | 8.0 | 0.00 | 0.00 | 0.00 | 36 | 1020.5 |
| 20260902150705 | 25 | 225 | 3.2 | 6.4 | 0.00 | 0.00 | 0.00 | 36 | 1020.7 |